Time;durP1;ratioP1;P1;durP2;ratioP2;P2;SDS_P1;SDS_P2;PMS_P1;PMS_P2;Temp;Humidity;BMP_temperature;BMP_pressure;BME280_temperature;BME280_humidity;BME280_pressure;Samples;Min_cycle;Max_cycle;Signal;HPM_P1;HPM_P2
2024/01/28 00:00:53;;;;;;;26.60;11.70;;;;;;;2.63;100.00;100659.11;109454;1251;58939;-76
2024/01/28 00:03:40;;;;;;;27.90;12.20;;;;;;;2.64;100.00;100656.48;109478;1252;59526;-76
2024/01/28 00:06:06;;;;;;;22.90;11.70;;;;;;;2.64;100.00;100655.77;109477;1252;66936;-76
2024/01/28 00:08:33;;;;;;;25.70;10.80;;;;;;;2.66;100.00;100661.54;109504;1252;60752;-76
2024/01/28 00:11:00;;;;;;;24.50;11.10;;;;;;;2.66;100.00;100662.77;109441;1252;65010;-76
2024/01/28 00:13:28;;;;;;;22.50;11.30;;;;;;;2.66;100.00;100667.34;109424;1252;59153;-77
2024/01/28 00:15:54;;;;;;;24.50;10.30;;;;;;;2.68;100.00;100668.73;109478;1252;58923;-77
2024/01/28 00:18:21;;;;;;;24.40;10.40;;;;;;;2.69;100.00;100672.23;109538;1252;66010;-75
2024/01/28 00:20:48;;;;;;;25.50;11.30;;;;;;;2.70;100.00;100675.36;109523;1252;61152;-77
2024/01/28 00:23:14;;;;;;;21.80;10.90;;;;;;;2.73;100.00;100681.14;109238;1253;65106;-76
2024/01/28 00:25:41;;;;;;;25.20;11.30;;;;;;;2.74;100.00;100682.89;109465;1252;58974;-77
2024/01/28 00:28:08;;;;;;;24.20;11.90;;;;;;;2.75;100.00;100679.37;109211;1252;59130;-76
2024/01/28 00:30:34;;;;;;;24.60;12.40;;;;;;;2.75;100.00;100682.70;109499;1252;66081;-76
2024/01/28 00:33:01;;;;;;;25.30;11.90;;;;;;;2.76;100.00;100683.57;109452;1252;61628;-76
2024/01/28 00:35:28;;;;;;;22.50;11.40;;;;;;;2.77;100.00;100686.03;109277;1253;65116;-76
2024/01/28 00:37:57;;;;;;;26.10;12.40;;;;;;;2.78;100.00;100683.90;109464;1251;58976;-76
2024/01/28 00:40:24;;;;;;;27.80;12.50;;;;;;;2.78;100.00;100688.98;109481;1252;59072;-76
2024/01/28 00:42:50;;;;;;;35.80;12.70;;;;;;;2.81;100.00;100693.89;109479;1252;75116;-77
2024/01/28 00:45:17;;;;;;;27.40;12.90;;;;;;;2.83;100.00;100693.52;109462;1252;59919;-76
2024/01/28 00:47:44;;;;;;;31.50;13.70;;;;;;;2.84;100.00;100691.41;109503;1252;63194;-77
2024/01/28 00:50:11;;;;;;;33.00;13.10;;;;;;;2.84;100.00;100693.69;109437;1252;59008;-77
2024/01/28 00:52:38;;;;;;;30.90;13.90;;;;;;;2.84;100.00;100694.58;109294;1252;59552;-76
2024/01/28 00:55:06;;;;;;;27.60;13.40;;;;;;;2.85;100.00;100694.23;109236;1252;66136;-76
2024/01/28 00:57:32;;;;;;;28.70;13.10;;;;;;;2.85;100.00;100697.55;109450;1253;59863;-76
2024/01/28 00:59:59;;;;;;;28.20;13.60;;;;;;;2.85;100.00;100698.42;109454;1252;65244;-77
2024/01/28 01:02:25;;;;;;;33.00;13.60;;;;;;;2.85;100.00;100700.19;109216;1253;59490;-76
2024/01/28 01:04:52;;;;;;;26.20;14.20;;;;;;;2.83;100.00;100708.09;109078;1253;59103;-76
2024/01/28 01:07:19;;;;;;;27.00;14.40;;;;;;;2.80;100.00;100709.17;109508;1252;67679;-75
2024/01/28 01:09:45;;;;;;;31.70;17.00;;;;;;;2.78;100.00;100710.41;109471;1252;59881;-75
2024/01/28 01:12:12;;;;;;;30.50;15.80;;;;;;;2.76;100.00;100706.38;109485;1252;64088;-76
2024/01/28 01:14:38;;;;;;;35.30;17.00;;;;;;;2.76;100.00;100704.98;109496;1252;58954;-77
2024/01/28 01:17:05;;;;;;;30.90;16.60;;;;;;;2.75;100.00;100702.89;109501;1252;58984;-76
2024/01/28 01:19:32;;;;;;;32.30;17.00;;;;;;;2.73;100.00;100701.83;109278;1252;66747;-76
2024/01/28 01:22:01;;;;;;;34.00;14.40;;;;;;;2.73;100.00;100697.29;109494;1252;59875;-76
2024/01/28 01:24:28;;;;;;;32.90;16.00;;;;;;;2.72;100.00;100694.48;109478;1252;62770;-76
2024/01/28 01:26:54;;;;;;;30.90;14.80;;;;;;;2.71;100.00;100689.58;109454;1252;59028;-76
2024/01/28 01:29:21;;;;;;;30.90;16.60;;;;;;;2.70;100.00;100688.00;109506;1252;59372;-76
2024/01/28 01:31:48;;;;;;;27.10;14.50;;;;;;;2.70;100.00;100689.59;109510;1252;66174;-76
2024/01/28 01:34:15;;;;;;;28.10;14.80;;;;;;;2.69;100.00;100688.89;109474;1252;61124;-76
2024/01/28 01:36:44;;;;;;;26.40;14.90;;;;;;;2.69;100.00;100692.41;109483;1252;64619;-76
2024/01/28 01:39:12;;;;;;;24.30;13.30;;;;;;;2.69;100.00;100694.88;109490;1251;58952;-76
2024/01/28 01:41:39;;;;;;;29.20;16.00;;;;;;;2.69;100.00;100696.45;109387;1253;59103;-76
2024/01/28 01:44:05;;;;;;;26.70;14.90;;;;;;;2.69;100.00;100689.08;109506;1252;65983;-76
2024/01/28 01:46:33;;;;;;;26.50;13.60;;;;;;;2.70;100.00;100685.73;109474;1252;60108;-76
2024/01/28 01:49:00;;;;;;;24.20;13.20;;;;;;;2.70;100.00;100686.25;109202;1251;65071;-76
2024/01/28 01:51:27;;;;;;;27.00;14.30;;;;;;;2.69;100.00;100686.45;109139;1256;59095;-77
2024/01/28 01:53:54;;;;;;;25.60;13.60;;;;;;;2.68;100.00;100688.73;109146;1256;59036;-76
2024/01/28 01:56:22;;;;;;;23.20;12.30;;;;;;;2.68;100.00;100689.78;109174;1256;67293;-76
2024/01/28 01:58:49;;;;;;;24.60;13.20;;;;;;;2.67;100.00;100691.55;109151;1256;61435;-77
2024/01/28 02:01:16;;;;;;;20.80;12.70;;;;;;;2.68;100.00;100694.86;109159;1256;65028;-76
2024/01/28 02:03:43;;;;;;;22.90;13.10;;;;;;;2.68;100.00;100692.23;109238;1256;58943;-76
2024/01/28 02:06:11;;;;;;;26.40;14.90;;;;;;;2.69;100.00;100694.17;109204;1256;58950;-77
2024/01/28 02:08:38;;;;;;;28.80;16.20;;;;;;;2.71;100.00;100693.61;108995;1256;67091;-76
2024/01/28 02:11:06;;;;;;;32.10;17.20;;;;;;;2.71;100.00;100694.84;109188;1256;61414;-77
2024/01/28 02:13:34;;;;;;;23.40;14.60;;;;;;;2.70;100.00;100694.67;109135;1256;64202;-76
2024/01/28 02:16:00;;;;;;;28.30;16.40;;;;;;;2.70;100.00;100693.27;109123;1256;58992;-76
2024/01/28 02:18:27;;;;;;;30.40;17.00;;;;;;;2.69;100.00;100695.92;109059;1256;59256;-77
2024/01/28 02:20:53;;;;;;;31.60;17.40;;;;;;;2.69;100.00;100696.10;109128;1256;67246;-76
2024/01/28 02:23:23;;;;;;;34.60;17.10;;;;;;;2.69;100.00;100697.33;109399;1252;60032;-76
2024/01/28 02:25:50;;;;;;;33.50;19.10;;;;;;;2.68;100.00;100698.55;109141;1253;64997;-77
2024/01/28 02:28:17;;;;;;;34.60;20.70;;;;;;;2.68;100.00;100701.02;109449;1252;59188;-77
2024/01/28 02:30:43;;;;;;;37.90;18.30;;;;;;;2.69;100.00;100699.77;109504;1251;59065;-77
2024/01/28 02:33:10;;;;;;;37.30;18.30;;;;;;;2.69;100.00;100700.30;109537;1252;67162;-79
2024/01/28 02:35:37;;;;;;;33.60;17.60;;;;;;;2.69;100.00;100701.36;109508;1252;61050;-75
2024/01/28 02:38:03;;;;;;;37.30;18.70;;;;;;;2.70;100.00;100705.20;109507;1252;65008;-76
2024/01/28 02:40:31;;;;;;;32.60;17.30;;;;;;;2.71;100.00;100708.17;109122;1252;58977;-75
2024/01/28 02:42:59;;;;;;;31.10;16.70;;;;;;;2.70;100.00;100709.06;109569;1255;59424;-77
2024/01/28 02:45:26;;;;;;;29.20;17.60;;;;;;;2.72;100.00;100712.23;109050;1253;66367;-77
2024/01/28 02:47:53;;;;;;;33.70;17.80;;;;;;;2.72;100.00;100703.95;109472;1253;61016;-76
2024/01/28 02:50:19;;;;;;;29.80;18.10;;;;;;;2.72;100.00;100701.33;109476;1253;64161;-75
2024/01/28 02:52:46;;;;;;;28.20;17.80;;;;;;;2.73;100.00;100702.37;109486;1252;58976;-76
2024/01/28 02:55:13;;;;;;;33.70;18.50;;;;;;;2.74;100.00;100702.54;109491;1251;59011;-77
2024/01/28 02:57:39;;;;;;;28.10;17.10;;;;;;;2.74;100.00;100699.90;109476;1252;67091;-77
2024/01/28 03:00:37;;;;;;;29.30;16.70;;;;;;;2.74;100.00;100703.94;109543;1252;60079;-76
2024/01/28 03:03:04;;;;;;;28.80;15.50;;;;;;;2.75;100.00;100704.83;109481;1252;64052;-77
2024/01/28 03:05:30;;;;;;;28.10;14.90;;;;;;;2.75;100.00;100703.41;109248;1252;59074;-76
2024/01/28 03:07:57;;;;;;;24.90;13.80;;;;;;;2.75;100.00;100705.00;109494;1251;59230;-76
2024/01/28 03:10:23;;;;;;;24.10;12.50;;;;;;;2.75;100.00;100707.45;109507;1252;67226;-75
2024/01/28 03:12:50;;;;;;;20.90;11.70;;;;;;;2.76;100.00;100709.37;109542;1251;61465;-76
2024/01/28 03:15:18;;;;;;;25.80;12.10;;;;;;;2.76;100.00;100711.64;109510;1252;63985;-76
2024/01/28 03:17:44;;;;;;;25.60;11.80;;;;;;;2.77;100.00;100716.20;109519;1251;59021;-77
2024/01/28 03:20:11;;;;;;;22.60;11.20;;;;;;;2.78;100.00;100717.09;109460;1257;59049;-75
2024/01/28 03:22:38;;;;;;;23.30;11.00;;;;;;;2.78;100.00;100724.98;109506;1253;66856;-76
2024/01/28 03:25:05;;;;;;;19.50;10.90;;;;;;;2.79;100.00;100726.20;109476;1253;61001;-77
2024/01/28 03:27:32;;;;;;;19.20;11.30;;;;;;;2.81;100.00;100730.40;109252;1253;65035;-76
2024/01/28 03:29:58;;;;;;;24.00;11.20;;;;;;;2.82;100.00;100728.46;109476;1252;58938;-76
2024/01/28 03:32:25;;;;;;;20.30;10.40;;;;;;;2.84;100.00;100731.08;109549;1253;59205;-75
2024/01/28 03:34:52;;;;;;;23.30;10.50;;;;;;;2.85;100.00;100732.65;109301;1253;65932;-75
2024/01/28 03:37:18;;;;;;;21.60;11.00;;;;;;;2.86;100.00;100731.42;109471;1252;60012;-76
2024/01/28 03:39:45;;;;;;;23.50;9.50;;;;;;;2.88;100.00;100734.76;109495;1252;63979;-76
2024/01/28 03:42:12;;;;;;;19.00;10.30;;;;;;;2.87;100.00;100728.25;109220;1252;59287;-76
2024/01/28 03:44:38;;;;;;;18.10;9.80;;;;;;;2.88;100.00;100728.25;109517;1252;58996;-76
2024/01/28 03:47:05;;;;;;;17.70;9.60;;;;;;;2.89;100.00;100730.34;109516;1252;66066;-77
2024/01/28 03:49:32;;;;;;;18.00;9.80;;;;;;;2.91;100.00;100731.73;109502;1252;61150;-76
2024/01/28 03:51:58;;;;;;;23.70;11.30;;;;;;;2.92;100.00;100732.59;109451;1252;62965;-76
2024/01/28 03:54:25;;;;;;;22.40;10.10;;;;;;;2.93;100.00;100734.52;109496;1252;59176;-76
2024/01/28 03:56:51;;;;;;;18.00;11.00;;;;;;;2.94;100.00;100738.38;109494;1252;59068;-77
2024/01/28 03:59:19;;;;;;;17.80;11.10;;;;;;;2.94;100.00;100738.91;109541;1252;67089;-75
2024/01/28 04:01:46;;;;;;;15.80;9.80;;;;;;;2.94;100.00;100740.30;109531;1251;59954;-76
2024/01/28 04:04:12;;;;;;;15.40;10.20;;;;;;;2.95;100.00;100741.70;109481;1253;64047;-76
2024/01/28 04:06:43;;;;;;;17.20;9.20;;;;;;;2.95;100.00;100740.48;109492;1252;58978;-78
2024/01/28 04:09:11;;;;;;;16.30;9.00;;;;;;;2.96;100.00;100744.15;109479;1253;58940;-76
2024/01/28 04:11:38;;;;;;;18.40;10.20;;;;;;;2.97;100.00;100743.80;109516;1253;67100;-76
2024/01/28 04:14:04;;;;;;;18.40;9.00;;;;;;;2.97;100.00;100749.94;109292;1253;59841;-76
2024/01/28 04:16:32;;;;;;;16.50;8.70;;;;;;;2.98;100.00;100752.23;109524;1252;65069;-75
2024/01/28 04:18:59;;;;;;;15.80;9.20;;;;;;;2.98;100.00;100757.31;109523;1253;59343;-76
2024/01/28 04:21:27;;;;;;;15.40;7.50;;;;;;;2.97;100.00;100760.48;109232;1253;59185;-76
2024/01/28 04:23:53;;;;;;;18.40;8.30;;;;;;;2.96;100.00;100765.23;109485;1252;65739;-76
2024/01/28 04:26:20;;;;;;;18.10;8.50;;;;;;;2.96;100.00;100772.79;109508;1252;60032;-76
2024/01/28 04:28:47;;;;;;;15.20;8.60;;;;;;;2.95;100.00;100772.27;109487;1253;65132;-76
2024/01/28 04:31:13;;;;;;;12.70;8.60;;;;;;;2.96;100.00;100775.94;109509;1252;59049;-76
2024/01/28 04:33:41;;;;;;;13.60;7.60;;;;;;;2.97;100.00;100775.40;109552;1252;58946;-76
2024/01/28 04:36:08;;;;;;;13.10;7.70;;;;;;;2.98;100.00;100770.84;109520;1253;67041;-76
2024/01/28 04:38:35;;;;;;;11.30;7.50;;;;;;;2.99;100.00;100770.82;109231;1253;61390;-76
2024/01/28 04:41:01;;;;;;;17.30;8.00;;;;;;;3.00;100.00;100770.80;109507;1253;63881;-76
2024/01/28 04:43:28;;;;;;;17.60;7.40;;;;;;;3.00;100.00;100774.68;109468;1253;59099;-75
2024/01/28 04:45:54;;;;;;;14.30;7.90;;;;;;;2.99;100.00;100772.75;109477;1253;59355;-76
2024/01/28 04:48:21;;;;;;;15.50;7.80;;;;;;;2.97;100.00;100775.04;109503;1253;66843;-76
2024/01/28 04:50:48;;;;;;;21.30;10.10;;;;;;;2.97;100.00;100777.67;109555;1252;60256;-77
2024/01/28 04:53:14;;;;;;;18.00;10.70;;;;;;;2.97;100.00;100778.91;109445;1253;65045;-76
2024/01/28 04:55:41;;;;;;;22.00;12.10;;;;;;;2.97;100.00;100780.67;109267;1257;59576;-76
2024/01/28 04:58:08;;;;;;;19.60;12.50;;;;;;;2.96;100.00;100784.02;109478;1253;59064;-76
2024/01/28 05:00:34;;;;;;;20.50;12.00;;;;;;;2.96;100.00;100783.48;109448;1253;67286;-76
2024/01/28 05:03:01;;;;;;;16.40;12.30;;;;;;;2.95;100.00;100788.40;109245;1252;60051;-76
2024/01/28 05:05:28;;;;;;;18.90;11.60;;;;;;;2.93;100.00;100795.61;109512;1253;64169;-77
2024/01/28 05:07:54;;;;;;;17.10;11.80;;;;;;;2.93;100.00;100798.61;109468;1253;59022;-76
2024/01/28 05:10:21;;;;;;;15.50;10.60;;;;;;;2.92;100.00;100803.35;109476;1253;59073;-77
2024/01/28 05:12:48;;;;;;;21.20;11.60;;;;;;;2.90;100.00;100807.05;109253;1253;67378;-77
2024/01/28 05:15:16;;;;;;;17.20;11.10;;;;;;;2.89;100.00;100809.69;109543;1253;59839;-76
2024/01/28 05:17:44;;;;;;;18.10;11.30;;;;;;;2.87;100.00;100816.73;109518;1252;65112;-77
2024/01/28 05:20:12;;;;;;;17.70;10.70;;;;;;;2.86;100.00;100815.85;109258;1253;59101;-77
2024/01/28 05:22:38;;;;;;;19.30;10.00;;;;;;;2.84;100.00;100818.15;109521;1251;58910;-75
2024/01/28 05:25:05;;;;;;;19.00;8.90;;;;;;;2.83;100.00;100820.95;109479;1253;65974;-76
2024/01/28 05:27:32;;;;;;;21.70;10.00;;;;;;;2.82;100.00;100821.32;109477;1252;60980;-77
2024/01/28 05:29:59;;;;;;;20.00;10.10;;;;;;;2.80;100.00;100824.84;109424;1253;64037;-75
2024/01/28 05:32:26;;;;;;;21.60;10.80;;;;;;;2.79;100.00;100829.05;109523;1253;59060;-76
2024/01/28 05:34:56;;;;;;;15.10;9.10;;;;;;;2.79;100.00;100830.98;109252;1253;59138;-76
2024/01/28 05:37:23;;;;;;;19.30;11.50;;;;;;;2.77;100.00;100834.50;109507;1252;67121;-76
2024/01/28 05:39:49;;;;;;;18.40;11.40;;;;;;;2.76;100.00;100836.25;109522;1252;61073;-76
2024/01/28 05:42:16;;;;;;;18.10;11.60;;;;;;;2.76;100.00;100838.02;109497;1253;64007;-76
2024/01/28 05:44:43;;;;;;;19.50;12.60;;;;;;;2.75;100.00;100840.66;109486;1253;59435;-76
2024/01/28 05:47:10;;;;;;;23.30;12.70;;;;;;;2.75;100.00;100847.34;109477;1252;59400;-76
2024/01/28 05:49:36;;;;;;;21.80;13.40;;;;;;;2.74;100.00;100846.64;109432;1251;66970;-76
2024/01/28 05:52:03;;;;;;;23.00;13.20;;;;;;;2.74;100.00;100847.52;109528;1253;60227;-77
2024/01/28 05:54:30;;;;;;;23.20;12.70;;;;;;;2.73;100.00;100848.73;109509;1253;62768;-76
2024/01/28 05:56:57;;;;;;;22.90;13.10;;;;;;;2.74;100.00;100850.67;109475;1253;59035;-77
2024/01/28 05:59:23;;;;;;;25.60;13.40;;;;;;;2.73;100.00;100857.00;109052;1253;59105;-76
2024/01/28 06:01:50;;;;;;;20.00;12.50;;;;;;;2.72;100.00;100856.65;109488;1253;67316;-76
2024/01/28 06:04:16;;;;;;;22.10;12.80;;;;;;;2.72;100.00;100862.98;109548;1253;61077;-77
2024/01/28 06:06:43;;;;;;;23.90;14.30;;;;;;;2.71;100.00;100868.94;109472;1253;65090;-76
2024/01/28 06:09:10;;;;;;;24.50;13.30;;;;;;;2.71;100.00;100873.85;109473;1251;58969;-77
2024/01/28 06:11:37;;;;;;;25.40;13.90;;;;;;;2.72;100.00;100877.55;109501;1253;58986;-77
2024/01/28 06:14:03;;;;;;;21.60;14.10;;;;;;;2.72;100.00;100877.72;109481;1252;65961;-76
2024/01/28 06:16:30;;;;;;;25.30;15.50;;;;;;;2.71;100.00;100878.23;109488;1253;60229;-75
2024/01/28 06:18:57;;;;;;;25.00;14.70;;;;;;;2.70;100.00;100876.85;109258;1253;65085;-75
2024/01/28 06:21:24;;;;;;;25.00;15.00;;;;;;;2.69;100.00;100874.05;109491;1252;59043;-76
2024/01/28 06:23:51;;;;;;;21.90;13.00;;;;;;;2.69;100.00;100874.40;109509;1252;58890;-76
2024/01/28 06:26:18;;;;;;;24.70;13.40;;;;;;;2.68;100.00;100870.71;109465;1253;67178;-75
2024/01/28 06:28:49;;;;;;;20.50;11.20;;;;;;;2.68;100.00;100870.88;109291;1252;60852;-76
2024/01/28 06:31:15;;;;;;;21.50;12.00;;;;;;;2.69;100.00;100864.92;109456;1251;65339;-77
2024/01/28 06:33:43;;;;;;;18.70;11.10;;;;;;;2.69;100.00;100864.05;109455;1253;59065;-78
2024/01/28 06:36:18;;;;;;;17.30;11.10;;;;;;;2.69;100.00;100864.40;109462;1252;59038;-77
2024/01/28 06:38:44;;;;;;;17.80;11.50;;;;;;;2.70;100.00;100868.77;109488;1252;67063;-76
2024/01/28 06:41:11;;;;;;;23.40;11.80;;;;;;;2.70;100.00;100871.74;109504;1253;61425;-77
2024/01/28 06:43:37;;;;;;;17.30;10.20;;;;;;;2.70;100.00;100871.22;109445;1252;65292;-77
2024/01/28 06:46:04;;;;;;;21.80;10.90;;;;;;;2.69;100.00;100873.17;109458;1252;59081;-77
2024/01/28 06:48:31;;;;;;;18.70;10.10;;;;;;;2.68;100.00;100875.45;109534;1253;59041;-76
2024/01/28 06:50:58;;;;;;;19.70;11.00;;;;;;;2.69;100.00;100880.02;109485;1253;66688;-77
2024/01/28 06:53:24;;;;;;;19.50;10.40;;;;;;;2.69;100.00;100879.66;108709;1253;1002344;-77
2024/01/28 06:55:51;;;;;;;18.10;9.60;;;;;;;2.70;100.00;100880.54;109438;1254;65085;-77
2024/01/28 06:58:17;;;;;;;16.20;10.80;;;;;;;2.70;100.00;100883.33;109221;1253;59100;-77
2024/01/28 07:00:44;;;;;;;18.00;11.30;;;;;;;2.71;100.00;100888.23;109495;1253;59165;-77
2024/01/28 07:03:11;;;;;;;20.70;12.90;;;;;;;2.71;100.00;100887.37;109471;1253;66534;-77
2024/01/28 07:05:38;;;;;;;23.80;13.40;;;;;;;2.73;100.00;100888.23;109494;1253;59784;-75
2024/01/28 07:08:07;;;;;;;21.70;12.70;;;;;;;2.74;100.00;100890.34;109459;1253;65269;-77
2024/01/28 07:10:33;;;;;;;21.80;13.40;;;;;;;2.75;100.00;100890.33;109152;1252;59521;-77
2024/01/28 07:13:03;;;;;;;22.00;13.60;;;;;;;2.79;100.00;100894.17;109469;1253;59174;-76
2024/01/28 07:15:30;;;;;;;22.20;14.20;;;;;;;2.81;100.00;100898.21;109437;1252;67100;-76
2024/01/28 07:17:57;;;;;;;18.90;13.20;;;;;;;2.85;100.00;100896.79;109485;1253;61206;-77
2024/01/28 07:20:23;;;;;;;20.90;14.10;;;;;;;2.86;100.00;100900.81;109476;1253;64799;-77
2024/01/28 07:22:50;;;;;;;24.70;14.30;;;;;;;2.87;100.00;100898.71;109132;1253;59022;-78
2024/01/28 07:25:17;;;;;;;24.70;14.00;;;;;;;2.88;100.00;100896.07;109477;1253;58923;-76
2024/01/28 07:27:43;;;;;;;22.30;13.40;;;;;;;2.88;100.00;100892.92;109474;1253;67185;-77
2024/01/28 07:30:10;;;;;;;23.90;15.40;;;;;;;2.89;100.00;100891.50;109550;1253;60178;-77
2024/01/28 07:32:36;;;;;;;20.90;15.60;;;;;;;2.90;100.00;100895.70;109472;1252;63958;-77
2024/01/28 07:35:04;;;;;;;20.90;14.10;;;;;;;2.90;100.00;100897.29;109434;1252;58981;-76
2024/01/28 07:37:30;;;;;;;23.40;14.20;;;;;;;2.91;100.00;100895.52;109475;1253;59013;-77
2024/01/28 07:39:57;;;;;;;25.20;14.30;;;;;;;2.91;100.00;100902.36;109462;1252;65989;-76
2024/01/28 07:42:23;;;;;;;23.30;14.30;;;;;;;2.93;100.00;100906.58;109488;1253;61654;-77
2024/01/28 07:44:50;;;;;;;22.20;14.00;;;;;;;2.94;100.00;100911.84;109472;1253;65053;-77
2024/01/28 07:47:17;;;;;;;24.60;15.10;;;;;;;2.94;100.00;100917.29;109473;1253;59032;-77
2024/01/28 07:49:43;;;;;;;19.60;14.70;;;;;;;2.95;100.00;100918.34;109422;1253;59061;-76
2024/01/28 07:52:10;;;;;;;24.50;14.40;;;;;;;2.97;100.00;100917.61;109501;1252;66932;-77
2024/01/28 07:54:36;;;;;;;19.50;15.00;;;;;;;2.99;100.00;100916.19;109493;1254;61138;-77
2024/01/28 07:57:03;;;;;;;22.20;15.40;;;;;;;3.01;100.00;100917.59;109486;1254;65073;-78
2024/01/28 07:59:30;;;;;;;26.40;16.40;;;;;;;3.04;100.00;100917.23;109456;1253;59291;-78
2024/01/28 08:01:56;;;;;;;22.50;15.00;;;;;;;3.07;100.00;100917.91;109510;1255;59126;-79
2024/01/28 08:04:23;;;;;;;17.90;15.00;;;;;;;3.09;100.00;100915.08;109493;1254;65938;-76
2024/01/28 08:06:50;;;;;;;21.80;14.90;;;;;;;3.10;100.00;100916.85;109478;1254;60998;-76
2024/01/28 08:09:17;;;;;;;23.10;15.60;;;;;;;3.12;100.00;100917.36;109419;1254;72843;-77
2024/01/28 08:11:44;;;;;;;22.10;16.20;;;;;;;3.12;100.00;100915.25;109416;1252;59314;-76
2024/01/28 08:14:10;;;;;;;27.40;16.60;;;;;;;3.15;100.00;100916.64;109484;1256;59640;-78
2024/01/28 08:16:37;;;;;;;23.60;17.30;;;;;;;3.18;100.00;100917.85;109531;1254;66994;-77
2024/01/28 08:19:06;;;;;;;25.70;16.20;;;;;;;3.19;100.00;100922.59;109466;1254;61091;-77
2024/01/28 08:21:33;;;;;;;24.30;17.20;;;;;;;3.20;100.00;100924.69;109437;1253;64803;-77
2024/01/28 08:23:59;;;;;;;24.50;16.10;;;;;;;3.23;100.00;100921.70;109245;1253;59005;-78
2024/01/28 08:26:26;;;;;;;22.20;16.30;;;;;;;3.24;100.00;100919.23;109451;1253;59105;-77
2024/01/28 08:28:54;;;;;;;27.50;18.20;;;;;;;3.26;100.00;100924.83;109270;1253;67071;-77
2024/01/28 08:31:21;;;;;;;26.50;18.60;;;;;;;3.26;100.00;100928.16;109462;1253;60028;-77
2024/01/28 08:33:47;;;;;;;32.50;20.40;;;;;;;3.26;100.00;100932.73;109232;1254;63982;-78
2024/01/28 08:36:15;;;;;;;35.80;20.60;;;;;;;3.28;100.00;100934.83;109445;1254;58926;-77
2024/01/28 08:38:42;;;;;;;31.00;21.00;;;;;;;3.32;100.00;100938.69;109474;1253;59654;-76
2024/01/28 08:41:08;;;;;;;27.00;18.40;;;;;;;3.36;100.00;100946.56;109447;1252;65973;-76
2024/01/28 08:43:35;;;;;;;29.70;18.80;;;;;;;3.39;100.00;100945.84;109451;1254;61108;-76
2024/01/28 08:46:03;;;;;;;32.30;19.60;;;;;;;3.40;100.00;100951.46;109474;1253;65109;-77
2024/01/28 08:48:30;;;;;;;32.00;21.10;;;;;;;3.41;100.00;100953.02;109483;1252;59025;-77
2024/01/28 08:50:57;;;;;;;29.50;19.50;;;;;;;3.41;100.00;100950.73;109472;1252;59017;-77
2024/01/28 08:53:24;;;;;;;31.00;19.70;;;;;;;3.42;100.00;100947.93;109486;1254;66744;-77
2024/01/28 08:55:50;;;;;;;36.90;21.10;;;;;;;3.43;100.00;100944.60;109452;1253;61021;-76
2024/01/28 08:58:17;;;;;;;33.50;21.90;;;;;;;3.44;100.00;100944.40;109450;1254;64014;-76
2024/01/28 09:00:43;;;;;;;31.20;22.70;;;;;;;3.46;100.00;100943.69;109445;1253;59092;-76
2024/01/28 09:03:10;;;;;;;39.90;24.00;;;;;;;3.46;100.00;100941.92;109260;1253;58962;-76
2024/01/28 09:05:37;;;;;;;33.10;22.80;;;;;;;3.47;100.00;100948.25;109288;1253;66945;-75
2024/01/28 09:08:03;;;;;;;39.30;25.60;;;;;;;3.49;100.00;100957.55;109477;1252;60165;-75
2024/01/28 09:10:30;;;;;;;32.50;23.40;;;;;;;3.50;100.00;100962.64;109441;1253;65301;-74
2024/01/28 09:12:57;;;;;;;31.50;22.60;;;;;;;3.51;100.00;100957.88;109443;1253;58996;-76
2024/01/28 09:15:24;;;;;;;33.10;22.10;;;;;;;3.53;100.00;100962.44;109453;1255;59048;-76
2024/01/28 09:17:50;;;;;;;31.60;22.30;;;;;;;3.55;100.00;100963.83;109439;1254;65693;-75
2024/01/28 09:20:17;;;;;;;29.00;19.90;;;;;;;3.57;100.00;100965.05;109434;1253;61168;-76
2024/01/28 09:22:44;;;;;;;30.60;21.70;;;;;;;3.61;100.00;100968.20;109460;1253;64128;-77
2024/01/28 09:25:10;;;;;;;29.50;20.60;;;;;;;3.65;100.00;100970.10;109451;1254;59072;-76
2024/01/28 09:27:37;;;;;;;30.60;18.80;;;;;;;3.67;100.00;100975.00;109436;1254;59024;-76
2024/01/28 09:30:04;;;;;;;33.50;21.30;;;;;;;3.68;100.00;100975.17;109481;1254;66782;-77
2024/01/28 09:32:31;;;;;;;29.60;19.80;;;;;;;3.70;100.00;100972.69;109494;1254;60927;-76
2024/01/28 09:34:57;;;;;;;28.80;19.00;;;;;;;3.72;100.00;100974.62;109452;1253;64678;-76
2024/01/28 09:37:24;;;;;;;30.00;20.10;;;;;;;3.74;100.00;100971.98;109257;1253;59109;-76
2024/01/28 09:39:51;;;;;;;30.30;20.60;;;;;;;3.75;100.00;100980.92;109461;1252;59013;-76
2024/01/28 09:42:24;;;;;;;29.90;21.10;;;;;;;3.77;100.00;100981.80;109445;1252;66185;-75
2024/01/28 09:44:50;;;;;;;30.70;21.70;;;;;;;3.77;100.00;100986.36;109383;1254;59764;-75
2024/01/28 09:47:20;;;;;;;30.60;20.60;;;;;;;3.78;100.00;100983.36;109410;1254;65227;-76
2024/01/28 09:49:47;;;;;;;33.50;20.30;;;;;;;3.79;100.00;100985.47;109353;1254;59052;-76
2024/01/28 09:52:14;;;;;;;33.90;22.30;;;;;;;3.79;100.00;100982.66;109452;1252;59057;-75
2024/01/28 09:54:47;;;;;;;33.30;20.90;;;;;;;3.82;100.00;100988.61;109448;1253;64752;-76
2024/01/28 09:57:15;;;;;;;35.10;22.50;;;;;;;3.83;100.00;100988.09;109447;1253;61646;-75
2024/01/28 09:59:43;;;;;;;34.30;22.50;;;;;;;3.83;100.00;100988.24;109324;1254;121920;-74
2024/01/28 10:02:11;;;;;;;32.60;22.00;;;;;;;3.85;100.00;100983.67;109123;1254;59319;-75
2024/01/28 10:04:40;;;;;;;31.40;21.60;;;;;;;3.87;100.00;100980.30;109405;1253;61629;-76
2024/01/28 10:07:09;;;;;;;36.40;23.30;;;;;;;3.90;100.00;100982.58;109465;1254;65836;-76
2024/01/28 10:09:36;;;;;;;39.40;24.30;;;;;;;3.95;100.00;100980.95;109431;1254;61169;-76
2024/01/28 10:12:04;;;;;;;36.20;23.60;;;;;;;4.01;100.00;100981.08;109433;1253;64065;-76
2024/01/28 10:14:30;;;;;;;36.20;24.40;;;;;;;4.08;100.00;100979.80;109420;1252;59250;-75
2024/01/28 10:16:57;;;;;;;33.60;23.10;;;;;;;4.14;100.00;100979.03;109428;1253;59007;-77
2024/01/28 10:19:24;;;;;;;37.40;23.80;;;;;;;4.21;100.00;100973.69;109335;1253;67171;-75
2024/01/28 10:21:51;;;;;;;32.90;20.80;;;;;;;4.30;100.00;100970.63;109444;1254;59695;-76
2024/01/28 10:24:18;;;;;;;31.00;20.70;;;;;;;4.37;100.00;100967.21;109264;1253;64107;-75
2024/01/28 10:26:45;;;;;;;30.80;20.10;;;;;;;4.43;100.00;100960.11;109439;1253;59292;-75
2024/01/28 10:29:13;;;;;;;32.50;20.70;;;;;;;4.45;100.00;100959.03;109313;1253;59021;-76
2024/01/28 10:31:40;;;;;;;32.00;21.20;;;;;;;4.51;100.00;100957.03;109128;1254;65931;-76
2024/01/28 10:34:08;;;;;;;30.90;18.90;;;;;;;4.57;100.00;100957.33;109453;1253;61882;-75
2024/01/28 10:36:36;;;;;;;27.30;19.50;;;;;;;4.60;100.00;100962.58;109289;1253;65110;-76
2024/01/28 10:39:04;;;;;;;31.20;20.10;;;;;;;4.64;100.00;100964.29;109430;1253;58994;-77
2024/01/28 10:41:32;;;;;;;27.70;17.50;;;;;;;4.71;100.00;100961.75;109419;1253;58924;-75
2024/01/28 10:44:08;;;;;;;26.00;17.60;;;;;;;4.77;100.00;100959.03;109405;1251;67189;-76
2024/01/28 10:46:41;;;;;;;32.50;20.10;;;;;;;4.81;100.00;100955.64;109432;1251;60162;-76
2024/01/28 10:49:09;;;;;;;31.50;18.60;;;;;;;4.89;100.00;100959.95;109446;1251;62622;-77
2024/01/28 10:51:38;;;;;;;30.50;20.10;;;;;;;4.92;100.00;100964.32;109456;1251;59032;-74
2024/01/28 10:54:09;;;;;;;29.60;20.20;;;;;;;4.94;100.00;100966.93;109380;1251;58987;-75
2024/01/28 10:56:40;;;;;;;32.30;19.90;;;;;;;4.95;100.00;100962.35;109261;1251;75005;-75
2024/01/28 10:59:07;;;;;;;27.80;18.60;;;;;;;4.98;100.00;100960.73;109447;1251;61072;-75
2024/01/28 11:01:35;;;;;;;27.50;19.20;;;;;;;5.01;100.00;100960.34;109465;1251;65222;-75